createdAt,value
2022-09-06T00:00:14.964Z,24.80
2022-09-06T00:02:42.578Z,24.70
2022-09-06T00:05:10.612Z,24.70
2022-09-06T00:07:37.523Z,24.60
2022-09-06T00:10:04.874Z,24.70
2022-09-06T00:12:32.245Z,24.70
2022-09-06T00:14:59.046Z,24.70
2022-09-06T00:17:25.760Z,24.60
2022-09-06T00:19:52.539Z,24.50
2022-09-06T00:22:19.264Z,24.50
2022-09-06T00:24:45.931Z,24.50
2022-09-06T00:27:12.724Z,24.50
2022-09-06T00:29:39.588Z,24.60
2022-09-06T00:32:06.492Z,24.60
2022-09-06T00:34:33.179Z,24.60
2022-09-06T00:37:00.245Z,24.60
2022-09-06T00:39:27.127Z,24.60
2022-09-06T00:41:53.911Z,24.60
2022-09-06T00:44:20.665Z,24.50
2022-09-06T00:46:49.692Z,24.40
2022-09-06T00:49:24.417Z,24.40
2022-09-06T00:51:55.667Z,24.30
2022-09-06T00:54:22.714Z,24.30
2022-09-06T00:56:50.232Z,24.30
2022-09-06T00:59:17.402Z,24.30
2022-09-06T01:01:44.418Z,24.20
2022-09-06T01:04:11.558Z,24.20
2022-09-06T01:07:03.221Z,24.30
2022-09-06T01:09:50.387Z,24.20
2022-09-06T01:12:35.527Z,24.20
2022-09-06T01:15:13.328Z,24.20
2022-09-06T01:17:42.843Z,24.20
2022-09-06T01:20:34.320Z,24.30
2022-09-06T01:23:15.757Z,24.20
2022-09-06T01:26:20.917Z,24.30
2022-09-06T01:28:49.317Z,24.30
2022-09-06T01:31:35.597Z,24.30
2022-09-06T01:34:08.138Z,24.10
2022-09-06T01:36:35.971Z,24.10
2022-09-06T01:39:03.315Z,24.10
2022-09-06T01:41:30.509Z,24.10
2022-09-06T01:43:58.260Z,24.10
2022-09-06T01:46:39.586Z,24.10
2022-09-06T01:49:15.285Z,24.10
2022-09-06T01:51:56.908Z,24.10
2022-09-06T01:54:33.830Z,24.00
2022-09-06T01:57:00.473Z,24.00
2022-09-06T02:00:01.295Z,24.00
2022-09-06T02:02:28.050Z,24.00
2022-09-06T02:05:04.760Z,24.00
2022-09-06T02:07:34.253Z,24.00
2022-09-06T02:10:17.101Z,24.00
2022-09-06T02:12:47.612Z,24.00
2022-09-06T02:15:23.503Z,24.00
2022-09-06T02:18:06.137Z,24.00
2022-09-06T02:20:37.435Z,24.00
2022-09-06T02:23:08.252Z,24.00
2022-09-06T02:25:40.396Z,24.00
2022-09-06T02:28:08.748Z,24.10
2022-09-06T02:30:40.068Z,24.00
2022-09-06T02:33:29.185Z,24.10
2022-09-06T02:35:56.507Z,24.10
2022-09-06T02:38:25.291Z,24.00
2022-09-06T02:40:53.900Z,24.00
2022-09-06T02:43:21.629Z,24.00
2022-09-06T02:45:48.561Z,23.90
2022-09-06T02:48:15.343Z,23.90
2022-09-06T02:50:42.083Z,23.90
2022-09-06T02:53:14.674Z,23.90
2022-09-06T02:55:41.954Z,23.90
2022-09-06T02:58:11.731Z,23.90
2022-09-06T03:00:38.970Z,23.90
2022-09-06T03:03:06.189Z,23.90
2022-09-06T03:05:33.660Z,23.90
2022-09-06T03:08:00.566Z,23.90
2022-09-06T03:10:27.657Z,23.90
2022-09-06T03:12:54.432Z,23.90
2022-09-06T03:15:21.282Z,23.90
2022-09-06T03:17:48.051Z,23.90
2022-09-06T03:20:14.846Z,23.90
2022-09-06T03:22:42.191Z,23.90
2022-09-06T03:25:10.241Z,23.90
2022-09-06T03:27:37.325Z,23.80
2022-09-06T03:30:05.854Z,23.80
2022-09-06T03:32:32.912Z,23.80
2022-09-06T03:34:59.853Z,23.70
2022-09-06T03:37:26.701Z,23.70
2022-09-06T03:39:53.548Z,23.70
2022-09-06T03:42:20.543Z,23.60
2022-09-06T03:44:47.241Z,23.50
2022-09-06T03:47:17.521Z,23.40
2022-09-06T03:49:46.825Z,23.50
2022-09-06T03:52:14.024Z,23.50
2022-09-06T03:54:40.787Z,23.50
2022-09-06T03:57:07.495Z,23.50
2022-09-06T03:59:34.455Z,23.50
2022-09-06T04:02:01.245Z,23.50
2022-09-06T04:04:28.362Z,23.50
2022-09-06T04:06:55.097Z,23.50
2022-09-06T04:09:21.810Z,23.50
2022-09-06T04:11:48.481Z,23.50
2022-09-06T04:14:15.308Z,23.50
2022-09-06T04:16:42.090Z,23.40
2022-09-06T04:19:08.950Z,23.40
2022-09-06T04:21:35.821Z,23.40
2022-09-06T04:24:02.882Z,23.30
2022-09-06T04:26:29.637Z,23.30
2022-09-06T04:28:56.372Z,23.30
2022-09-06T04:31:23.180Z,23.30
2022-09-06T04:33:49.915Z,23.30
2022-09-06T04:36:16.755Z,23.30
2022-09-06T04:38:44.877Z,23.30
2022-09-06T04:41:15.687Z,23.30
2022-09-06T04:43:42.931Z,23.20
2022-09-06T04:46:30.511Z,23.20
2022-09-06T04:48:58.158Z,23.10
2022-09-06T04:51:25.461Z,23.20
2022-09-06T04:53:52.419Z,23.20
2022-09-06T04:56:23.228Z,23.20
2022-09-06T04:58:51.039Z,23.10
2022-09-06T05:01:18.377Z,23.10
2022-09-06T05:03:45.147Z,23.00
2022-09-06T05:06:23.503Z,23.00
2022-09-06T05:08:50.832Z,22.90
2022-09-06T05:11:18.433Z,22.90
2022-09-06T05:13:46.612Z,22.90
2022-09-06T05:16:13.774Z,22.90
2022-09-06T05:18:40.497Z,23.00
2022-09-06T05:21:07.693Z,23.00
2022-09-06T05:23:34.447Z,23.00
2022-09-06T05:26:01.258Z,23.00
2022-09-06T05:28:28.075Z,23.00
2022-09-06T05:31:24.814Z,23.10
2022-09-06T05:33:55.234Z,23.10
2022-09-06T05:36:23.512Z,23.20
2022-09-06T05:38:54.671Z,23.20
2022-09-06T05:41:22.509Z,23.30
2022-09-06T05:43:49.487Z,23.40
2022-09-06T05:46:17.229Z,23.40
2022-09-06T05:48:43.997Z,23.50
2022-09-06T05:51:13.695Z,23.60
2022-09-06T05:53:42.870Z,23.70
2022-09-06T05:56:11.078Z,23.80
2022-09-06T05:58:38.989Z,23.90
2022-09-06T06:01:16.062Z,24.00
2022-09-06T06:03:43.952Z,24.10
2022-09-06T06:06:10.716Z,24.10
2022-09-06T06:08:37.398Z,24.20
2022-09-06T06:11:04.225Z,24.30
2022-09-06T06:13:34.778Z,24.30
2022-09-06T06:16:03.236Z,24.40
2022-09-06T06:18:30.062Z,24.40
2022-09-06T06:21:14.580Z,24.50
2022-09-06T06:23:43.129Z,24.50
2022-09-06T06:26:11.544Z,24.50
2022-09-06T06:28:39.213Z,24.60
2022-09-06T06:31:07.498Z,24.50
2022-09-06T06:33:36.296Z,24.50
2022-09-06T06:36:07.204Z,24.50
2022-09-06T06:38:37.349Z,24.20
2022-09-06T06:41:07.070Z,24.60
2022-09-06T06:43:38.004Z,24.60
2022-09-06T06:46:09.324Z,24.60
2022-09-06T06:48:37.134Z,24.70
2022-09-06T06:51:04.293Z,24.80
2022-09-06T06:53:31.135Z,24.90
2022-09-06T06:55:57.871Z,25.00
2022-09-06T06:58:24.700Z,25.10
2022-09-06T07:00:51.702Z,25.10
2022-09-06T07:03:18.735Z,25.20
2022-09-06T07:08:37.157Z,25.20
2022-09-06T07:11:05.804Z,25.20
2022-09-06T07:13:34.154Z,25.20
2022-09-06T07:16:13.314Z,25.30
2022-09-06T07:18:42.298Z,25.30
2022-09-06T07:26:31.926Z,25.30
2022-09-06T07:29:01.311Z,25.40
2022-09-06T07:34:17.664Z,25.50
2022-09-06T07:36:44.372Z,25.50
2022-09-06T07:39:11.031Z,25.50
2022-09-06T07:41:37.805Z,25.50
2022-09-06T07:44:04.462Z,25.50
2022-09-06T07:46:31.234Z,25.50
2022-09-06T07:48:58.130Z,25.60
2022-09-06T07:51:24.955Z,25.70
2022-09-06T07:54:07.102Z,25.70
2022-09-06T07:56:40.319Z,25.80
2022-09-06T07:59:07.164Z,25.80
2022-09-06T08:01:36.403Z,25.90
2022-09-06T08:04:12.687Z,26.00
2022-09-06T08:09:29.262Z,26.10
2022-09-06T08:11:56.072Z,26.10
2022-09-06T08:14:22.788Z,26.20
2022-09-06T08:16:49.580Z,26.10
2022-09-06T08:19:16.794Z,26.20
2022-09-06T08:21:43.972Z,26.20
2022-09-06T08:24:11.180Z,26.30
2022-09-06T08:26:40.500Z,26.40
2022-09-06T08:29:08.858Z,26.40
2022-09-06T08:31:38.341Z,26.40
2022-09-06T08:34:05.514Z,26.40
2022-09-06T08:36:32.809Z,26.60
2022-09-06T08:39:01.936Z,26.70
2022-09-06T08:41:51.996Z,26.70
2022-09-06T08:47:20.686Z,26.80
2022-09-06T08:50:05.401Z,26.70
2022-09-06T08:52:49.591Z,26.50
2022-09-06T08:55:44.629Z,26.20
2022-09-06T08:58:32.531Z,26.30
2022-09-06T09:01:07.119Z,26.40
2022-09-06T09:03:36.898Z,26.70
2022-09-06T09:06:06.827Z,26.80
2022-09-06T09:09:01.869Z,27.00
2022-09-06T09:11:29.961Z,27.00
2022-09-06T09:14:03.117Z,27.10
2022-09-06T09:16:29.898Z,27.30
2022-09-06T09:19:01.584Z,27.30
2022-09-06T09:21:31.245Z,27.40
2022-09-06T09:24:03.134Z,27.40
2022-09-06T09:26:37.001Z,27.50
2022-09-06T09:29:14.620Z,27.50
2022-09-06T09:31:49.865Z,27.50
2022-09-06T09:34:35.151Z,27.70
2022-09-06T09:40:14.414Z,27.70
2022-09-06T09:42:41.658Z,27.80
2022-09-06T09:45:28.243Z,27.90
2022-09-06T09:47:55.589Z,27.80
2022-09-06T09:50:33.609Z,27.90
2022-09-06T09:53:15.774Z,28.10
2022-09-06T09:55:44.085Z,28.20
2022-09-06T09:58:32.063Z,28.30
2022-09-06T10:01:20.922Z,28.50
2022-09-06T10:09:31.160Z,28.60
2022-09-06T10:11:59.605Z,28.80
2022-09-06T10:14:42.436Z,28.90
2022-09-06T10:17:17.565Z,29.10
2022-09-06T10:19:46.281Z,29.30
2022-09-06T10:22:21.800Z,29.40
2022-09-06T10:25:03.967Z,29.60
2022-09-06T10:27:31.050Z,29.70
2022-09-06T10:30:06.082Z,29.90
2022-09-06T10:32:58.466Z,30.10
2022-09-06T10:35:30.443Z,30.20
2022-09-06T10:38:22.961Z,30.30
2022-09-06T10:40:57.067Z,30.50
2022-09-06T10:43:27.091Z,30.70
2022-09-06T10:46:09.379Z,31.00
2022-09-06T10:48:41.089Z,31.10
2022-09-06T10:51:12.433Z,31.20
2022-09-06T10:53:51.415Z,31.40
2022-09-06T10:56:49.736Z,31.50
2022-09-06T10:59:39.181Z,31.70
2022-09-06T11:02:18.630Z,31.80
2022-09-06T11:07:42.738Z,31.80
2022-09-06T11:10:29.263Z,31.80
2022-09-06T11:13:08.521Z,31.90
2022-09-06T11:15:41.944Z,32.00
2022-09-06T11:18:15.956Z,32.30
2022-09-06T11:21:11.031Z,32.70
2022-09-06T11:23:52.401Z,33.00
2022-09-06T11:26:44.695Z,33.30
2022-09-06T11:29:32.231Z,33.60
2022-09-06T11:32:17.884Z,33.90
2022-09-06T11:34:54.943Z,34.30
2022-09-06T11:37:43.735Z,34.70
2022-09-06T11:40:28.340Z,35.00
2022-09-06T11:42:55.604Z,35.20
2022-09-06T11:45:45.837Z,35.40
2022-09-06T11:48:25.261Z,35.60
2022-09-06T11:50:54.815Z,36.00
2022-09-06T11:53:25.532Z,36.10
2022-09-06T11:56:23.097Z,36.20
2022-09-06T11:58:59.662Z,36.50
2022-09-06T12:01:26.405Z,36.50
2022-09-06T12:04:09.769Z,36.80
2022-09-06T12:06:43.763Z,36.80
2022-09-06T12:09:29.993Z,37.10
2022-09-06T12:11:58.651Z,37.60
2022-09-06T12:14:41.639Z,37.80
2022-09-06T12:17:18.290Z,38.20
2022-09-06T12:19:59.560Z,38.40
2022-09-06T12:22:29.370Z,38.00
2022-09-06T12:24:56.047Z,37.40
2022-09-06T12:27:25.340Z,37.80
2022-09-06T12:30:12.958Z,38.40
2022-09-06T12:32:51.939Z,39.30
2022-09-06T12:38:17.125Z,40.30
2022-09-06T12:40:51.712Z,40.70
2022-09-06T12:43:20.122Z,41.50
2022-09-06T12:45:52.416Z,41.90
2022-09-06T12:48:31.292Z,42.30
2022-09-06T12:51:03.922Z,42.50
2022-09-06T12:53:31.717Z,43.00
2022-09-06T12:56:04.465Z,43.00
2022-09-06T12:58:31.522Z,43.20
2022-09-06T13:01:09.667Z,43.30
2022-09-06T13:03:55.642Z,43.50
2022-09-06T13:06:27.161Z,43.30
2022-09-06T13:08:57.191Z,42.20
2022-09-06T13:11:34.659Z,41.70
2022-09-06T13:14:02.674Z,42.40
2022-09-06T13:16:37.508Z,43.30
2022-09-06T13:19:33.300Z,43.70
2022-09-06T13:22:01.743Z,44.20
2022-09-06T13:24:34.585Z,42.80
2022-09-06T13:27:01.473Z,40.00
2022-09-06T13:29:33.073Z,38.70
2022-09-06T13:32:02.243Z,38.00
2022-09-06T13:34:30.350Z,37.00
2022-09-06T13:37:10.831Z,37.00
2022-09-06T13:39:38.751Z,38.80
2022-09-06T13:42:07.447Z,40.40
2022-09-06T13:44:37.227Z,41.70
2022-09-06T13:47:04.296Z,42.50
2022-09-06T13:49:31.826Z,43.30
2022-09-06T13:52:03.787Z,42.40
2022-09-06T13:54:31.894Z,40.10
2022-09-06T13:56:58.727Z,40.00
2022-09-06T13:59:27.277Z,40.80
2022-09-06T14:02:12.021Z,41.40
2022-09-06T14:04:38.830Z,41.90
2022-09-06T14:07:05.960Z,42.80
2022-09-06T14:09:33.223Z,43.40
2022-09-06T14:12:00.740Z,43.50
2022-09-06T14:14:27.563Z,42.70
2022-09-06T14:16:54.386Z,41.60
2022-09-06T14:19:21.219Z,39.90
2022-09-06T14:21:47.988Z,38.50
2022-09-06T14:24:14.881Z,37.30
2022-09-06T14:26:41.847Z,36.50
2022-09-06T14:29:08.705Z,35.90
2022-09-06T14:31:35.639Z,35.60
2022-09-06T14:34:04.071Z,35.30
2022-09-06T14:36:32.791Z,35.10
2022-09-06T14:39:00.995Z,34.60
2022-09-06T14:41:28.240Z,34.40
2022-09-06T14:43:57.622Z,34.30
2022-09-06T14:46:26.778Z,34.20
2022-09-06T14:49:07.331Z,34.20
2022-09-06T14:51:35.068Z,34.10
2022-09-06T14:54:07.690Z,34.00
2022-09-06T14:56:34.893Z,34.00
2022-09-06T14:59:01.750Z,33.80
2022-09-06T15:01:37.076Z,33.70
2022-09-06T15:04:05.867Z,33.70
2022-09-06T15:06:34.678Z,33.30
2022-09-06T15:09:01.745Z,33.20
2022-09-06T15:11:34.371Z,33.20
2022-09-06T15:14:12.961Z,33.50
2022-09-06T15:16:39.773Z,33.70
2022-09-06T15:19:07.945Z,33.60
2022-09-06T15:21:34.818Z,33.70
2022-09-06T15:24:02.575Z,34.70
2022-09-06T15:26:30.330Z,35.70
2022-09-06T15:28:57.367Z,36.30
2022-09-06T15:31:24.270Z,36.70
2022-09-06T15:33:51.701Z,36.90
2022-09-06T15:36:18.571Z,37.20
2022-09-06T15:38:50.216Z,37.30
2022-09-06T15:41:25.243Z,37.20
2022-09-06T15:43:57.746Z,37.00
2022-09-06T15:46:38.331Z,37.30
2022-09-06T15:49:07.306Z,37.90
2022-09-06T15:51:36.732Z,37.70
2022-09-06T15:54:04.055Z,37.50
2022-09-06T15:56:30.857Z,37.10
2022-09-06T15:58:57.595Z,36.40
2022-09-06T16:01:26.004Z,36.10
2022-09-06T16:04:03.917Z,36.60
2022-09-06T16:06:42.568Z,36.80
2022-09-06T16:09:14.341Z,36.70
2022-09-06T16:11:41.977Z,36.80
2022-09-06T16:14:11.958Z,36.70
2022-09-06T16:16:39.867Z,36.60
2022-09-06T16:19:07.306Z,36.20
2022-09-06T16:21:36.815Z,36.10
2022-09-06T16:24:09.525Z,35.80
2022-09-06T16:26:39.193Z,35.40
2022-09-06T16:29:07.979Z,35.00
2022-09-06T16:31:39.831Z,34.70
2022-09-06T16:34:10.911Z,34.00
2022-09-06T16:36:38.355Z,33.50
2022-09-06T16:39:06.463Z,33.30
2022-09-06T16:41:44.826Z,33.00
2022-09-06T16:44:17.584Z,32.80
2022-09-06T16:46:46.239Z,32.70
2022-09-06T16:49:13.550Z,32.60
2022-09-06T16:51:40.296Z,32.50
2022-09-06T16:54:07.038Z,32.30
2022-09-06T16:56:35.747Z,32.00
2022-09-06T16:59:05.460Z,31.80
2022-09-06T17:01:32.757Z,31.60
2022-09-06T17:04:03.937Z,31.80
2022-09-06T17:06:32.531Z,31.80
2022-09-06T17:08:59.763Z,31.50
2022-09-06T17:11:28.067Z,31.30
2022-09-06T17:13:56.005Z,31.30
2022-09-06T17:16:42.430Z,31.40
2022-09-06T17:19:10.325Z,31.40
2022-09-06T17:21:39.159Z,31.30
2022-09-06T17:24:06.941Z,31.40
2022-09-06T17:26:35.651Z,31.30
2022-09-06T17:29:02.821Z,31.10
2022-09-06T17:31:29.732Z,31.10
2022-09-06T17:33:56.509Z,30.90
2022-09-06T17:36:30.378Z,30.80
2022-09-06T17:39:03.085Z,30.70
2022-09-06T17:41:46.001Z,30.60
2022-09-06T17:44:14.861Z,30.60
2022-09-06T17:46:56.961Z,30.60
2022-09-06T17:49:29.072Z,30.60
2022-09-06T17:51:56.195Z,30.60
2022-09-06T17:54:23.475Z,30.50
2022-09-06T17:56:50.179Z,30.50
2022-09-06T17:59:16.940Z,30.40
2022-09-06T18:01:45.834Z,30.30
2022-09-06T18:04:14.172Z,30.30
2022-09-06T18:06:43.078Z,30.20
2022-09-06T18:09:14.595Z,30.20
2022-09-06T18:11:41.616Z,30.10
2022-09-06T18:14:10.926Z,30.10
2022-09-06T18:16:39.938Z,30.10
2022-09-06T18:19:08.349Z,30.10
2022-09-06T18:21:37.530Z,30.00
2022-09-06T18:24:04.707Z,30.10
2022-09-06T18:26:31.482Z,30.00
2022-09-06T18:28:58.569Z,29.90
2022-09-06T18:31:27.490Z,29.90
2022-09-06T18:34:00.394Z,29.80
2022-09-06T18:36:31.922Z,29.80
2022-09-06T18:39:02.850Z,29.80
2022-09-06T18:41:48.873Z,29.80
2022-09-06T18:44:16.653Z,29.70
2022-09-06T18:46:43.768Z,29.70
2022-09-06T18:49:13.497Z,29.70
2022-09-06T18:51:41.040Z,29.70
2022-09-06T18:54:07.892Z,29.60
2022-09-06T18:56:34.736Z,29.60
2022-09-06T18:59:02.096Z,29.50
2022-09-06T19:01:30.057Z,29.50
2022-09-06T19:03:58.012Z,29.50
2022-09-06T19:06:26.555Z,29.50
2022-09-06T19:08:53.876Z,29.50
2022-09-06T19:11:21.794Z,29.50
2022-09-06T19:13:51.938Z,29.50
2022-09-06T19:16:19.531Z,29.50
2022-09-06T19:18:46.279Z,29.50
2022-09-06T19:21:15.253Z,29.50
2022-09-06T19:23:44.914Z,29.40
2022-09-06T19:26:17.927Z,29.50
2022-09-06T19:28:53.423Z,29.50
2022-09-06T19:31:20.372Z,29.40
2022-09-06T19:33:49.328Z,29.40
2022-09-06T19:36:17.704Z,29.40
2022-09-06T19:39:02.383Z,29.30
2022-09-06T19:41:30.454Z,29.40
2022-09-06T19:43:58.532Z,29.40
2022-09-06T19:46:25.869Z,29.50
2022-09-06T19:48:54.072Z,29.40
2022-09-06T19:51:21.458Z,29.40
2022-09-06T19:53:52.970Z,29.20
2022-09-06T19:56:23.036Z,28.70
2022-09-06T19:58:57.809Z,28.00
2022-09-06T20:01:26.093Z,26.90
2022-09-06T20:03:53.070Z,25.90
2022-09-06T20:06:20.110Z,25.40
2022-09-06T20:08:50.966Z,25.20
2022-09-06T20:11:17.989Z,25.00
2022-09-06T20:13:45.006Z,24.90
2022-09-06T20:16:13.044Z,24.70
2022-09-06T20:18:40.681Z,24.50
2022-09-06T20:21:08.614Z,24.30
2022-09-06T20:23:35.994Z,24.00
2022-09-06T20:26:04.454Z,24.10
2022-09-06T20:28:31.952Z,24.20
2022-09-06T20:31:01.115Z,24.10
2022-09-06T20:33:28.599Z,24.20
2022-09-06T20:36:02.854Z,24.20
2022-09-06T20:38:35.221Z,24.20
2022-09-06T20:41:06.426Z,24.30
2022-09-06T20:43:36.730Z,24.30
2022-09-06T20:46:09.144Z,24.30
2022-09-06T20:48:44.213Z,24.10
2022-09-06T20:51:18.746Z,24.10
2022-09-06T20:53:52.835Z,24.10
2022-09-06T20:56:24.959Z,23.90
2022-09-06T20:58:57.816Z,23.90
2022-09-06T21:01:26.515Z,23.80
2022-09-06T21:03:56.122Z,23.80
2022-09-06T21:06:24.433Z,23.80
2022-09-06T21:08:51.936Z,23.70
2022-09-06T21:11:19.113Z,23.60
2022-09-06T21:13:53.377Z,23.50
2022-09-06T21:16:24.538Z,23.50
2022-09-06T21:19:02.983Z,23.50
2022-09-06T21:21:31.730Z,23.50
2022-09-06T21:24:03.715Z,23.50
2022-09-06T21:26:30.650Z,23.60
2022-09-06T21:28:57.612Z,23.70
2022-09-06T21:31:27.236Z,23.70
2022-09-06T21:33:56.680Z,23.70
2022-09-06T21:36:29.939Z,23.80
2022-09-06T21:39:02.713Z,23.90
2022-09-06T21:41:30.552Z,23.80
2022-09-06T21:43:59.749Z,23.70
2022-09-06T21:46:33.420Z,23.60
2022-09-06T21:49:07.115Z,23.50
2022-09-06T21:51:34.360Z,23.50
2022-09-06T21:54:04.644Z,23.40
2022-09-06T21:56:34.076Z,23.40
2022-09-06T21:59:00.977Z,23.40
2022-09-06T22:01:31.580Z,23.60
2022-09-06T22:03:58.648Z,23.60
2022-09-06T22:06:28.689Z,23.60
2022-09-06T22:08:57.645Z,23.60
2022-09-06T22:11:30.118Z,23.70
2022-09-06T22:14:02.535Z,23.70
2022-09-06T22:16:30.089Z,23.60
2022-09-06T22:18:56.963Z,23.70
2022-09-06T22:21:24.453Z,23.80
2022-09-06T22:23:59.987Z,23.80
2022-09-06T22:26:28.535Z,24.00
2022-09-06T22:28:57.576Z,24.10
2022-09-06T22:31:26.694Z,23.90
2022-09-06T22:33:54.140Z,24.00
2022-09-06T22:36:21.535Z,23.90
2022-09-06T22:38:48.398Z,23.80
2022-09-06T22:41:15.278Z,23.80
2022-09-06T22:43:42.020Z,23.90
2022-09-06T22:46:10.643Z,24.10
2022-09-06T22:48:37.448Z,24.10
2022-09-06T22:51:05.978Z,24.10
2022-09-06T22:53:34.128Z,24.10
2022-09-06T22:56:01.641Z,24.00
2022-09-06T22:58:28.746Z,24.00
2022-09-06T23:00:56.314Z,23.90
2022-09-06T23:03:23.397Z,24.00
2022-09-06T23:05:50.215Z,23.90
2022-09-06T23:08:17.011Z,24.00
2022-09-06T23:10:44.443Z,24.00
2022-09-06T23:13:11.668Z,24.00
2022-09-06T23:15:40.685Z,24.00
2022-09-06T23:18:07.701Z,23.90
2022-09-06T23:20:37.072Z,23.90
2022-09-06T23:23:05.223Z,23.90
2022-09-06T23:25:31.903Z,23.90
2022-09-06T23:28:00.229Z,23.90
2022-09-06T23:30:26.950Z,24.00
2022-09-06T23:32:53.810Z,24.00
2022-09-06T23:35:20.541Z,24.10
2022-09-06T23:37:49.956Z,24.10
2022-09-06T23:40:17.231Z,24.20
2022-09-06T23:42:44.063Z,24.30
2022-09-06T23:45:10.992Z,24.30
2022-09-06T23:47:38.094Z,24.30
2022-09-06T23:50:05.185Z,24.30
2022-09-06T23:52:31.864Z,24.30
2022-09-06T23:54:58.543Z,24.30
2022-09-06T23:57:25.215Z,24.40
2022-09-06T23:59:51.903Z,24.30
